Time;durP1;ratioP1;P1;durP2;ratioP2;P2;SDS_P1;SDS_P2;PMS_P1;PMS_P2;Temp;Humidity;BMP_temperature;BMP_pressure;BME280_temperature;BME280_humidity;BME280_pressure;Samples;Min_cycle;Max_cycle;Signal;HPM_P1;HPM_P2
2022/07/23 00:00:28;;;;;;;9.48;4.20;;;;;;;31.54;28.00;98567.03;4489503;31;20110;-86
2022/07/23 00:02:54;;;;;;;10.88;4.62;;;;;;;31.53;27.94;98573.53;4503804;31;20165;-86
2022/07/23 00:05:19;;;;;;;10.55;4.80;;;;;;;31.52;27.92;98566.41;4503926;31;20148;-86
2022/07/23 00:07:45;;;;;;;12.52;5.22;;;;;;;31.50;27.99;98569.34;4503763;31;20160;-86
2022/07/23 00:10:10;;;;;;;12.07;4.65;;;;;;;31.49;28.00;98562.25;4476069;31;20076;-86
2022/07/23 00:12:36;;;;;;;10.43;4.45;;;;;;;31.46;28.00;98559.97;4503609;31;20092;-86
2022/07/23 00:15:04;;;;;;;9.75;4.78;;;;;;;31.45;28.02;98561.03;4503853;31;20088;-86
2022/07/23 00:17:30;;;;;;;11.90;5.15;;;;;;;31.46;27.98;98562.69;4503667;31;20345;-86
2022/07/23 00:19:55;;;;;;;10.13;4.68;;;;;;;31.44;27.97;98562.06;4503698;31;20140;-86
2022/07/23 00:22:21;;;;;;;11.38;4.45;;;;;;;31.44;27.93;98558.50;4503754;31;20088;-86
2022/07/23 00:24:46;;;;;;;10.07;4.57;;;;;;;31.43;27.89;98560.41;4503607;31;20088;-86
2022/07/23 00:27:12;;;;;;;10.85;4.32;;;;;;;31.32;27.92;98559.25;4489295;31;20118;-86
2022/07/23 00:29:37;;;;;;;11.12;4.65;;;;;;;31.34;27.86;98561.75;4503533;31;20454;-86
2022/07/23 00:32:03;;;;;;;13.05;4.87;;;;;;;31.27;27.72;98559.06;4503531;31;20143;-86
2022/07/23 00:34:28;;;;;;;10.38;4.18;;;;;;;31.30;27.83;98555.09;4489255;31;20126;-86
2022/07/23 00:36:54;;;;;;;11.25;4.50;;;;;;;31.30;27.82;98563.25;4503592;31;20075;-86
2022/07/23 00:39:21;;;;;;;10.18;4.90;;;;;;;31.30;27.80;98568.72;4503452;31;20091;-86
2022/07/23 00:41:47;;;;;;;10.35;4.40;;;;;;;31.31;27.74;98562.19;4503557;31;20471;-84
2022/07/23 00:44:26;;;;;;;11.23;4.45;;;;;;;31.32;27.67;98569.31;4503365;31;20088;-79
2022/07/23 00:46:54;;;;;;;11.25;5.20;;;;;;;31.34;27.51;98569.91;4503732;31;20096;-80
2022/07/23 00:49:21;;;;;;;11.12;5.00;;;;;;;31.31;27.65;98571.22;4491655;31;20156;-81
2022/07/23 00:51:48;;;;;;;10.27;4.70;;;;;;;31.27;27.43;98574.56;4476534;31;20134;-82
2022/07/23 00:54:14;;;;;;;10.95;4.80;;;;;;;31.30;27.53;98565.97;4492390;31;20114;-81
2022/07/23 00:56:41;;;;;;;9.63;4.70;;;;;;;31.30;27.51;98568.72;4494346;31;20080;-81
2022/07/23 00:59:07;;;;;;;12.30;4.85;;;;;;;31.28;27.59;98582.53;4478056;32;20081;-80
2022/07/23 01:01:32;;;;;;;10.98;4.93;;;;;;;31.29;27.66;98572.47;4502849;31;20116;-78
2022/07/23 01:03:58;;;;;;;11.02;4.50;;;;;;;31.27;27.74;98572.69;4501327;31;20095;-80
2022/07/23 01:06:23;;;;;;;11.75;4.70;;;;;;;31.20;27.86;98562.94;4494307;31;20096;-80
2022/07/23 01:08:49;;;;;;;9.82;4.32;;;;;;;31.10;27.91;98571.56;4498673;31;20115;-80
2022/07/23 01:11:14;;;;;;;10.90;4.53;;;;;;;31.15;28.07;98569.03;4500680;31;20125;-80
2022/07/23 01:13:43;;;;;;;13.13;5.00;;;;;;;31.17;28.48;98578.63;4501837;31;20079;-80
2022/07/23 01:16:08;;;;;;;11.48;4.47;;;;;;;31.13;28.52;98574.69;4502483;31;20119;-81
2022/07/23 01:18:34;;;;;;;9.80;4.82;;;;;;;31.07;28.66;98574.75;4501474;31;20484;-80
2022/07/23 01:20:59;;;;;;;11.88;5.15;;;;;;;31.05;28.65;98569.53;4487943;31;20178;-80
2022/07/23 01:23:27;;;;;;;10.15;4.70;;;;;;;31.00;28.74;98566.63;4487953;31;20099;-81
2022/07/23 01:25:53;;;;;;;11.60;4.85;;;;;;;30.94;28.69;98560.19;4502810;31;20092;-81
2022/07/23 01:28:19;;;;;;;13.23;5.22;;;;;;;30.94;28.74;98562.09;4503361;31;20117;-80
2022/07/23 01:30:46;;;;;;;11.30;4.90;;;;;;;30.89;29.07;98562.75;4503189;31;20356;-81
2022/07/23 01:33:11;;;;;;;;;;;;;;;30.84;29.39;98565.25;4503459;31;20145;-80
2022/07/23 01:35:37;;;;;;;13.30;5.00;;;;;;;30.95;29.32;98561.03;4475830;31;19971;-80
2022/07/23 01:38:02;;;;;;;12.48;4.65;;;;;;;30.83;29.40;98565.47;4503153;31;20454;-80
2022/07/23 01:40:28;;;;;;;10.40;4.50;;;;;;;30.75;29.91;98561.13;4503149;31;20105;-80
2022/07/23 01:42:53;;;;;;;9.82;4.43;;;;;;;30.64;30.11;98557.25;4488862;31;20126;-81
2022/07/23 01:45:19;;;;;;;10.23;4.68;;;;;;;30.62;29.99;98558.50;4488825;31;20083;-80
2022/07/23 01:47:44;;;;;;;11.05;4.90;;;;;;;30.54;29.94;98560.44;4488582;31;20379;-80
2022/07/23 01:50:10;;;;;;;10.63;5.10;;;;;;;30.57;29.81;98551.84;4503034;31;20119;-81
2022/07/23 01:52:35;;;;;;;12.40;4.53;;;;;;;30.55;29.85;98555.84;4488748;31;20096;-80
2022/07/23 01:55:00;;;;;;;11.25;4.82;;;;;;;30.53;29.88;98557.94;4503020;31;20087;-81
2022/07/23 01:57:26;;;;;;;9.68;4.43;;;;;;;30.48;29.96;98553.19;4503027;31;20088;-81
2022/07/23 01:59:51;;;;;;;10.25;4.22;;;;;;;30.39;30.05;98557.19;4488605;31;20178;-81
2022/07/23 02:02:17;;;;;;;11.27;5.05;;;;;;;30.38;30.17;98556.38;4503073;31;20088;-81
2022/07/23 02:04:42;;;;;;;13.23;5.00;;;;;;;30.38;30.12;98559.09;4502957;31;20089;-81
2022/07/23 02:07:08;;;;;;;10.93;4.53;;;;;;;30.34;30.21;98560.53;4502951;31;20084;-81
2022/07/23 02:09:33;;;;;;;11.55;4.85;;;;;;;30.34;30.17;98551.56;4488526;31;20128;-81
2022/07/23 02:11:58;;;;;;;11.18;5.20;;;;;;;30.33;30.09;98550.75;4502878;31;20104;-80
2022/07/23 02:14:27;;;;;;;10.50;4.68;;;;;;;30.31;30.06;98555.56;4488599;31;20181;-81
2022/07/23 02:16:53;;;;;;;15.25;4.95;;;;;;;30.24;30.82;98551.19;4502863;31;20127;-81
2022/07/23 02:19:18;;;;;;;12.30;4.82;;;;;;;30.24;30.83;98559.34;4502365;31;20463;-80
2022/07/23 02:21:44;;;;;;;10.85;5.05;;;;;;;30.22;30.89;98570.41;4503111;31;20166;-79
2022/07/23 02:24:10;;;;;;;10.18;4.75;;;;;;;30.21;30.93;98562.47;4503093;31;20083;-80
2022/07/23 02:26:35;;;;;;;11.18;4.97;;;;;;;30.23;30.97;98563.09;4502954;31;20088;-80
2022/07/23 02:29:02;;;;;;;11.05;5.37;;;;;;;30.18;31.18;98561.84;4503046;31;20110;-79
2022/07/23 02:31:29;;;;;;;11.98;5.28;;;;;;;30.14;31.25;98563.34;4488904;31;20108;-79
2022/07/23 02:33:55;;;;;;;12.95;5.12;;;;;;;30.12;31.19;98561.91;4488722;31;20147;-81
2022/07/23 02:36:20;;;;;;;10.63;5.18;;;;;;;30.01;31.52;98557.97;4503004;31;20147;-81
2022/07/23 02:38:46;;;;;;;15.13;5.40;;;;;;;30.06;31.42;98558.16;4502917;31;20466;-80
2022/07/23 02:41:12;;;;;;;12.20;5.40;;;;;;;30.09;31.47;98565.03;4488545;31;20133;-79
2022/07/23 02:43:37;;;;;;;10.35;5.30;;;;;;;30.09;31.64;98560.44;4502820;31;20124;-80
2022/07/23 02:46:03;;;;;;;10.25;5.47;;;;;;;30.10;31.70;98564.00;4488532;31;20119;-80
2022/07/23 02:48:28;;;;;;;10.27;5.30;;;;;;;30.12;31.73;98561.91;4502862;31;20091;-80
2022/07/23 02:50:56;;;;;;;10.50;4.78;;;;;;;30.13;31.74;98567.13;4488407;31;20114;-80
2022/07/23 02:53:22;;;;;;;10.85;4.80;;;;;;;30.09;31.81;98565.03;4502789;31;20098;-81
2022/07/23 02:55:47;;;;;;;11.77;4.75;;;;;;;30.11;31.71;98558.31;4502680;31;20088;-81
2022/07/23 02:58:12;;;;;;;10.85;5.05;;;;;;;30.13;31.68;98556.25;4502868;31;20474;-80
2022/07/23 03:00:38;;;;;;;11.23;4.22;;;;;;;30.17;31.71;98553.91;4502732;31;20114;-81
2022/07/23 03:03:03;;;;;;;10.05;5.07;;;;;;;30.23;31.75;98552.22;4502669;31;20089;-81
2022/07/23 03:05:29;;;;;;;12.23;4.80;;;;;;;30.22;31.79;98551.41;4502739;31;20084;-81
2022/07/23 03:07:54;;;;;;;12.80;5.12;;;;;;;30.26;31.76;98547.19;4502664;31;20104;-81
2022/07/23 03:10:19;;;;;;;12.25;5.40;;;;;;;30.30;31.71;98545.69;4502393;31;20470;-81
2022/07/23 03:12:45;;;;;;;11.10;4.93;;;;;;;30.28;31.94;98553.22;4502569;31;20129;-80
2022/07/23 03:15:10;;;;;;;9.57;4.82;;;;;;;30.31;31.93;98552.84;4502382;31;20110;-81
2022/07/23 03:17:36;;;;;;;11.73;4.97;;;;;;;30.39;31.73;98551.75;4488027;31;20116;-80
2022/07/23 03:20:01;;;;;;;11.45;4.78;;;;;;;30.43;31.68;98549.44;4502439;31;20403;-80
2022/07/23 03:22:26;;;;;;;11.93;5.12;;;;;;;30.44;31.75;98551.91;4502411;31;20107;-81
2022/07/23 03:24:55;;;;;;;12.00;4.93;;;;;;;30.44;32.12;98554.63;4502307;31;20352;-80
2022/07/23 03:27:24;;;;;;;10.07;5.03;;;;;;;30.48;31.80;98561.34;4487787;31;20130;-80
2022/07/23 03:29:51;;;;;;;10.45;5.40;;;;;;;30.41;31.67;98555.09;4487889;31;20433;-81
2022/07/23 03:32:17;;;;;;;11.52;4.60;;;;;;;30.47;31.61;98556.94;4489200;31;20167;-81
2022/07/23 03:34:42;;;;;;;11.00;5.45;;;;;;;30.51;31.66;98557.34;4504312;31;20107;-80
2022/07/23 03:37:08;;;;;;;10.95;5.25;;;;;;;30.56;31.27;98552.09;4504324;31;20096;-81
2022/07/23 03:39:33;;;;;;;11.75;5.45;;;;;;;30.64;31.40;98549.09;4504267;31;20095;-81
2022/07/23 03:41:59;;;;;;;12.60;5.15;;;;;;;30.68;31.52;98558.47;4504201;31;20088;-81
2022/07/23 03:44:24;;;;;;;10.85;4.78;;;;;;;30.76;31.28;98562.81;4504179;31;20084;-80
2022/07/23 03:46:50;;;;;;;11.00;4.72;;;;;;;30.84;31.26;98554.38;4504251;31;20127;-80
2022/07/23 03:49:15;;;;;;;11.27;5.20;;;;;;;30.93;30.97;98558.53;4504113;31;20099;-81
2022/07/23 03:51:40;;;;;;;11.15;4.80;;;;;;;31.03;30.60;98563.47;4489731;31;20092;-81
2022/07/23 03:54:06;;;;;;;10.68;5.05;;;;;;;31.11;30.51;98555.03;4504184;31;20099;-81
2022/07/23 03:56:32;;;;;;;11.27;4.90;;;;;;;31.21;30.31;98559.97;4504210;31;20112;-80
2022/07/23 03:58:57;;;;;;;11.65;5.00;;;;;;;31.33;29.86;98555.47;4504122;31;20114;-80
2022/07/23 04:01:23;;;;;;;11.25;4.55;;;;;;;31.44;29.69;98558.50;4489731;31;20109;-80
2022/07/23 04:03:48;;;;;;;10.77;4.50;;;;;;;31.55;29.62;98555.09;4503971;31;20377;-81
2022/07/23 04:06:14;;;;;;;10.93;4.80;;;;;;;31.66;29.43;98548.91;4504143;31;20347;-80
2022/07/23 04:08:39;;;;;;;10.25;4.75;;;;;;;31.83;29.27;98562.72;4489436;31;20436;-80
2022/07/23 04:11:05;;;;;;;10.45;4.87;;;;;;;32.02;28.92;98557.31;4503483;31;20145;-80
2022/07/23 04:13:32;;;;;;;12.37;5.03;;;;;;;32.11;29.41;98558.69;4503747;31;20114;-80
2022/07/23 04:15:57;;;;;;;;;;;;;;;32.27;28.03;98563.47;4504153;31;20492;-81
2022/07/23 04:18:23;;;;;;;11.80;5.40;;;;;;;32.45;30.16;98561.78;4503913;31;19976;-81
2022/07/23 04:20:49;;;;;;;12.45;4.78;;;;;;;32.45;31.10;98565.34;4503823;31;20098;-80
2022/07/23 04:23:14;;;;;;;14.82;5.12;;;;;;;32.46;31.83;98561.56;4489195;31;20080;-80
2022/07/23 04:25:40;;;;;;;11.82;5.45;;;;;;;32.44;31.86;98571.84;4503676;31;20462;-81
2022/07/23 04:28:05;;;;;;;11.40;5.78;;;;;;;32.48;32.12;98573.06;4503577;31;20104;-80
2022/07/23 04:30:30;;;;;;;11.43;5.28;;;;;;;32.53;31.69;98566.94;4503571;31;20092;-81
2022/07/23 04:32:56;;;;;;;12.37;5.07;;;;;;;32.50;31.17;98567.37;4489250;31;20110;-81
2022/07/23 04:35:22;;;;;;;9.38;5.00;;;;;;;32.46;29.30;98566.19;4503534;31;20083;-80
2022/07/23 04:37:47;;;;;;;12.93;5.47;;;;;;;32.27;29.43;98574.38;4503791;31;20096;-80
2022/07/23 04:40:13;;;;;;;11.00;5.00;;;;;;;32.49;29.63;98572.00;4489286;31;20110;-80
2022/07/23 04:42:39;;;;;;;12.10;5.10;;;;;;;32.62;30.52;98573.72;4488742;31;20080;-80
2022/07/23 04:45:05;;;;;;;10.60;4.70;;;;;;;32.70;30.57;98578.03;4503635;31;20127;-80
2022/07/23 04:47:30;;;;;;;10.30;5.35;;;;;;;32.84;29.50;98581.41;4503538;31;20656;-81
2022/07/23 04:49:56;;;;;;;11.55;5.50;;;;;;;32.83;30.47;98585.19;4503630;31;20088;-80
2022/07/23 04:52:22;;;;;;;9.98;4.85;;;;;;;32.84;29.81;98581.41;4489168;31;20126;-80
2022/07/23 04:54:47;;;;;;;10.10;5.35;;;;;;;32.81;29.43;98581.84;4503385;31;20104;-81
2022/07/23 04:57:13;;;;;;;11.00;4.97;;;;;;;32.95;29.40;98583.31;4503430;31;20096;-80
2022/07/23 04:59:38;;;;;;;12.90;4.97;;;;;;;32.97;29.71;98580.34;4488939;31;20088;-80
2022/07/23 05:02:04;;;;;;;11.20;4.97;;;;;;;33.09;29.86;98573.84;4489033;31;20360;-80
2022/07/23 05:04:30;;;;;;;10.00;5.05;;;;;;;33.15;30.04;98587.62;4489037;31;20107;-82
2022/07/23 05:06:56;;;;;;;12.90;5.60;;;;;;;33.34;29.67;98580.19;4503450;31;20117;-82
2022/07/23 05:09:22;;;;;;;12.00;5.30;;;;;;;33.43;30.07;98574.13;4489350;31;20230;-81
2022/07/23 05:11:47;;;;;;;11.12;4.90;;;;;;;33.58;29.25;98578.31;4503463;31;20089;-81
2022/07/23 05:14:12;;;;;;;11.12;5.07;;;;;;;33.70;27.43;98579.16;4489149;31;20136;-81
2022/07/23 05:16:38;;;;;;;12.15;5.00;;;;;;;33.89;26.89;98567.00;4503606;31;20377;-81
2022/07/23 05:19:04;;;;;;;12.20;4.68;;;;;;;34.10;25.96;98567.44;4503549;31;20083;-81
2022/07/23 05:21:29;;;;;;;13.13;5.25;;;;;;;34.20;25.25;98573.13;4503489;31;20405;-81
2022/07/23 05:23:55;;;;;;;11.18;5.45;;;;;;;34.37;25.45;98575.09;4503605;31;20112;-81
2022/07/23 05:26:20;;;;;;;10.45;5.05;;;;;;;34.44;26.39;98576.63;4503423;31;20115;-81
2022/07/23 05:28:45;;;;;;;11.18;4.90;;;;;;;34.54;26.08;98573.25;4503643;31;20083;-81
2022/07/23 05:31:11;;;;;;;13.75;5.00;;;;;;;34.67;24.97;98577.59;4489104;31;20080;-81
2022/07/23 05:33:36;;;;;;;10.02;4.50;;;;;;;34.51;25.71;98581.94;4503468;31;20096;-80
2022/07/23 05:36:03;;;;;;;11.38;4.62;;;;;;;34.70;25.11;98584.50;4503572;31;20379;-81
2022/07/23 05:38:28;;;;;;;9.95;4.65;;;;;;;34.68;24.61;98575.72;4503536;31;20135;-80
2022/07/23 05:40:54;;;;;;;11.77;5.40;;;;;;;34.82;24.20;98577.88;4489042;31;20084;-80
2022/07/23 05:43:19;;;;;;;11.93;4.45;;;;;;;34.94;23.92;98575.06;4503493;31;20136;-81
2022/07/23 05:45:45;;;;;;;15.30;4.78;;;;;;;34.85;24.21;98571.91;4503389;31;20088;-81
2022/07/23 05:48:10;;;;;;;9.93;4.10;;;;;;;34.90;24.01;98573.91;4503360;31;20091;-81
2022/07/23 05:50:36;;;;;;;14.30;5.22;;;;;;;35.00;24.00;98570.50;4503298;31;20309;-81
2022/07/23 05:53:01;;;;;;;11.50;4.57;;;;;;;35.17;23.71;98574.09;4503250;31;20088;-81
2022/07/23 05:55:28;;;;;;;10.20;4.75;;;;;;;35.21;23.66;98574.44;4502359;31;20084;-82
2022/07/23 05:57:55;;;;;;;12.40;4.78;;;;;;;35.05;23.99;98581.56;4488842;31;20102;-81
2022/07/23 06:00:21;;;;;;;11.75;4.25;;;;;;;35.09;23.86;98570.94;4503415;31;20480;-81
2022/07/23 06:02:46;;;;;;;11.65;5.12;;;;;;;35.27;23.24;98573.44;4503060;31;20141;-81
2022/07/23 06:05:12;;;;;;;11.05;4.87;;;;;;;35.18;23.32;98581.25;4502972;31;20119;-81
2022/07/23 06:07:37;;;;;;;12.15;4.78;;;;;;;35.22;23.84;98571.47;4502991;31;20084;-81
2022/07/23 06:10:03;;;;;;;13.48;5.25;;;;;;;35.35;23.69;98569.44;4502691;31;20107;-80
2022/07/23 06:12:29;;;;;;;10.40;4.78;;;;;;;35.47;23.54;98561.97;4488915;31;20173;-81
2022/07/23 06:14:54;;;;;;;11.70;4.93;;;;;;;35.53;23.70;98554.66;4488877;31;20352;-81
2022/07/23 06:17:20;;;;;;;12.77;5.17;;;;;;;35.38;23.98;98561.56;4503191;31;20079;-81
2022/07/23 06:19:45;;;;;;;13.47;5.40;;;;;;;35.53;24.03;98560.97;4502955;31;20140;-80
2022/07/23 06:22:11;;;;;;;12.80;5.53;;;;;;;35.53;23.88;98560.97;4502864;31;20088;-81
2022/07/23 06:24:36;;;;;;;10.13;4.72;;;;;;;35.49;24.06;98559.81;4502882;31;20076;-81
2022/07/23 06:27:02;;;;;;;12.13;4.80;;;;;;;35.52;24.06;98556.56;4502897;31;20146;-81
2022/07/23 06:29:27;;;;;;;11.20;4.80;;;;;;;35.60;23.67;98552.56;4502695;31;20076;-81
2022/07/23 06:31:53;;;;;;;13.03;4.77;;;;;;;35.63;22.64;98552.87;4502800;31;20088;-81
2022/07/23 06:34:18;;;;;;;13.33;5.03;;;;;;;35.37;23.18;98554.44;4502767;31;20136;-81
2022/07/23 06:36:43;;;;;;;11.75;4.62;;;;;;;35.51;23.12;98562.31;4488327;31;20114;-81
2022/07/23 06:39:09;;;;;;;13.07;4.90;;;;;;;35.48;23.01;98555.41;4497192;31;20106;-81
2022/07/23 06:41:34;;;;;;;12.05;5.62;;;;;;;35.59;23.33;98554.47;4488343;31;20103;-81
2022/07/23 06:44:00;;;;;;;12.05;4.90;;;;;;;35.89;22.93;98555.16;4489425;31;20116;-81
2022/07/23 06:46:25;;;;;;;11.93;5.07;;;;;;;35.88;23.00;98550.78;4486944;32;20423;-81
2022/07/23 06:48:50;;;;;;;11.77;4.80;;;;;;;36.00;22.89;98548.72;4486769;31;20103;-81
2022/07/23 06:51:16;;;;;;;10.50;4.63;;;;;;;36.05;22.46;98561.69;4486788;31;20112;-81
2022/07/23 06:53:42;;;;;;;11.27;4.63;;;;;;;35.79;22.85;98553.97;4486747;31;20149;-81
2022/07/23 06:56:07;;;;;;;13.83;4.93;;;;;;;35.97;22.19;98555.56;4485501;32;20148;-82
2022/07/23 06:58:32;;;;;;;11.47;4.20;;;;;;;35.82;22.81;98555.38;4486664;31;20353;-80
2022/07/23 07:00:58;;;;;;;9.93;4.43;;;;;;;36.07;22.57;98556.78;4486717;31;20080;-80
2022/07/23 07:03:23;;;;;;;10.70;4.47;;;;;;;35.88;21.97;98559.00;4485485;32;20403;-79
2022/07/23 07:05:49;;;;;;;11.63;4.47;;;;;;;36.11;21.97;98557.94;4486343;31;20102;-80
2022/07/23 07:08:15;;;;;;;11.37;4.67;;;;;;;36.16;22.10;98552.47;4485455;32;20125;-80
2022/07/23 07:10:41;;;;;;;9.55;4.35;;;;;;;36.13;22.27;98547.53;4486145;32;20379;-80
2022/07/23 07:13:06;;;;;;;11.37;4.77;;;;;;;36.32;22.07;98537.91;4486757;31;20120;-81
2022/07/23 07:15:32;;;;;;;11.75;4.82;;;;;;;36.44;22.08;98543.22;4486814;31;20076;-82
2022/07/23 07:17:57;;;;;;;11.77;4.93;;;;;;;36.52;21.92;98530.97;4486749;31;20065;-81
2022/07/23 07:20:23;;;;;;;10.03;4.97;;;;;;;36.38;22.14;98539.59;4486770;31;20145;-81
2022/07/23 07:22:49;;;;;;;15.15;5.00;;;;;;;36.44;22.24;98542.41;4486661;31;20088;-81
2022/07/23 07:25:14;;;;;;;12.90;4.50;;;;;;;36.60;21.92;98533.22;4486677;31;20370;-81
2022/07/23 07:27:40;;;;;;;11.67;5.10;;;;;;;36.75;22.05;98535.31;4486530;31;20072;-81
2022/07/23 07:30:06;;;;;;;11.97;5.33;;;;;;;36.76;21.99;98531.47;4486542;31;20372;-83
2022/07/23 07:32:36;;;;;;;12.20;5.03;;;;;;;36.29;22.62;98538.41;4472281;32;20112;-82
2022/07/23 07:35:02;;;;;;;10.70;4.80;;;;;;;36.72;22.25;98535.84;4486276;31;20088;-85
2022/07/23 07:37:28;;;;;;;10.90;5.12;;;;;;;36.87;22.16;98544.22;4485097;32;20451;-85
2022/07/23 07:39:53;;;;;;;13.33;5.30;;;;;;;36.97;22.10;98535.22;4486099;32;20120;-85
2022/07/23 07:42:19;;;;;;;16.03;5.83;;;;;;;37.19;21.81;98524.19;4486212;31;20107;-83
2022/07/23 07:44:44;;;;;;;10.87;5.17;;;;;;;37.26;21.93;98533.00;4486049;31;20089;-84
2022/07/23 07:47:10;;;;;;;12.40;5.20;;;;;;;37.37;21.83;98533.91;4484895;32;20104;-84
2022/07/23 07:49:35;;;;;;;16.13;5.07;;;;;;;37.41;22.06;98540.53;4485941;31;20119;-84
2022/07/23 07:52:00;;;;;;;10.93;5.37;;;;;;;37.39;21.81;98532.53;4486081;31;20089;-83
2022/07/23 07:54:26;;;;;;;10.83;4.40;;;;;;;37.48;21.62;98529.31;4484714;32;20109;-83
2022/07/23 07:56:51;;;;;;;11.43;5.23;;;;;;;37.58;21.19;98523.88;4485941;31;20084;-82
2022/07/23 07:59:17;;;;;;;10.97;5.03;;;;;;;37.55;21.45;98522.50;4485937;31;20077;-83
2022/07/23 08:01:42;;;;;;;14.07;5.70;;;;;;;37.45;21.49;98529.84;4484697;31;20132;-84
2022/07/23 08:04:07;;;;;;;14.30;4.90;;;;;;;37.53;21.29;98527.41;4490445;31;20084;-84
2022/07/23 08:06:33;;;;;;;12.57;5.37;;;;;;;37.60;21.29;98523.59;4489968;31;20481;-84
2022/07/23 08:08:58;;;;;;;12.10;4.97;;;;;;;37.66;21.39;98531.63;4497487;31;20092;-83
2022/07/23 08:11:24;;;;;;;12.33;5.33;;;;;;;37.66;21.26;98531.63;4487565;31;20097;-83
2022/07/23 08:13:49;;;;;;;12.43;5.17;;;;;;;37.55;21.23;98529.87;4496403;31;20083;-85
2022/07/23 08:16:15;;;;;;;9.57;4.33;;;;;;;37.68;21.11;98528.63;4491106;31;20375;-87
2022/07/23 08:18:40;;;;;;;12.30;4.90;;;;;;;37.61;21.19;98531.63;4493963;31;20345;-84
2022/07/23 08:21:05;;;;;;;11.43;5.10;;;;;;;37.77;20.89;98529.75;4500936;31;20140;-85
2022/07/23 08:23:31;;;;;;;13.67;4.80;;;;;;;37.87;20.88;98534.47;4476110;31;20087;-85
2022/07/23 08:25:57;;;;;;;10.97;4.70;;;;;;;37.69;21.41;98528.34;4497918;31;20103;-85
2022/07/23 08:28:23;;;;;;;10.82;4.43;;;;;;;37.85;20.95;98518.25;4495643;31;20126;-87
2022/07/23 08:30:48;;;;;;;10.97;4.83;;;;;;;37.69;20.93;98522.03;4477564;32;20097;-87
2022/07/23 08:33:16;;;;;;;10.60;5.20;;;;;;;37.90;20.85;98520.19;4500409;31;20068;-89
2022/07/23 08:35:49;;;;;;;11.38;4.85;;;;;;;37.71;21.00;98526.16;4491439;31;20100;-88
2022/07/23 08:38:17;;;;;;;10.35;4.37;;;;;;;37.90;20.85;98529.28;4495607;31;20105;-85
2022/07/23 08:40:44;;;;;;;12.60;4.75;;;;;;;37.95;20.65;98534.78;4497777;31;20088;-88
2022/07/23 08:43:31;;;;;;;12.07;5.10;;;;;;;38.04;20.54;98531.53;4490227;31;20056;-90
2022/07/23 08:45:58;;;;;;;11.15;5.10;;;;;;;37.44;20.83;98528.19;4497754;31;20065;-93
2022/07/23 08:48:26;;;;;;;12.98;4.97;;;;;;;37.76;20.90;98533.59;4481574;31;20112;-89
2022/07/23 08:50:54;;;;;;;11.77;4.80;;;;;;;37.81;20.88;98528.13;4491276;31;20234;-90
2022/07/23 08:53:21;;;;;;;9.30;4.35;;;;;;;37.87;20.85;98513.31;4499572;31;20155;-89
2022/07/23 08:55:52;;;;;;;11.15;4.45;;;;;;;37.32;21.34;98523.72;4490473;31;20106;-87
2022/07/23 08:58:17;;;;;;;12.75;5.25;;;;;;;37.19;21.82;98532.41;4494854;31;20096;-89
2022/07/23 09:00:43;;;;;;;12.93;4.97;;;;;;;37.62;21.36;98521.44;4492538;31;20100;-90
2022/07/23 09:03:23;;;;;;;11.48;5.20;;;;;;;37.93;20.85;98528.72;4500247;31;20144;-90
2022/07/23 09:05:52;;;;;;;11.93;4.60;;;;;;;38.04;20.58;98521.34;4491775;31;20084;-91
2022/07/23 09:08:22;;;;;;;9.63;4.55;;;;;;;37.25;21.49;98519.56;4495122;31;20451;-88
2022/07/23 09:11:00;;;;;;;10.73;4.85;;;;;;;37.26;20.67;98518.44;4483853;31;20122;-88
2022/07/23 09:13:53;;;;;;;8.80;4.07;;;;;;;37.13;21.24;98517.81;4489830;31;20080;-87
2022/07/23 09:16:23;;;;;;;10.15;4.82;;;;;;;37.59;20.70;98514.50;4492090;31;20415;-87
2022/07/23 09:18:56;;;;;;;11.30;4.40;;;;;;;37.50;20.84;98525.19;4484150;31;20489;-88
2022/07/23 09:21:21;;;;;;;11.07;4.45;;;;;;;37.41;20.85;98513.03;4489928;31;20585;-88
2022/07/23 09:23:53;;;;;;;12.57;4.40;;;;;;;37.71;20.99;98517.91;4498373;31;20124;-87
2022/07/23 09:26:23;;;;;;;12.27;4.82;;;;;;;37.80;20.56;98520.16;4480661;31;20106;-87
2022/07/23 09:29:24;;;;;;;11.30;4.30;;;;;;;37.41;20.70;98509.47;4491547;31;20123;-87
2022/07/23 09:31:55;;;;;;;11.27;5.03;;;;;;;37.90;20.29;98507.28;4472654;32;20112;-88
2022/07/23 09:34:28;;;;;;;11.02;4.47;;;;;;;37.66;20.47;98508.81;4487174;32;20144;-88
2022/07/23 09:36:58;;;;;;;8.90;4.43;;;;;;;37.72;20.44;98511.31;4484713;31;20504;-96
2022/07/23 09:39:32;;;;;;;13.35;4.53;;;;;;;37.67;20.66;98504.97;4491530;31;20141;-94
2022/07/23 09:42:14;;;;;;;9.18;4.55;;;;;;;37.56;20.86;98513.13;4489820;31;20495;-94
2022/07/23 09:44:45;;;;;;;10.15;4.87;;;;;;;37.73;20.46;98507.47;4493194;31;20486;-93
2022/07/23 09:47:10;;;;;;;11.15;4.65;;;;;;;37.90;20.11;98504.53;4485634;31;20696;-92
2022/07/23 09:49:36;;;;;;;11.20;4.60;;;;;;;37.72;20.57;98505.00;4490204;31;20143;-92
2022/07/23 09:52:03;;;;;;;13.43;4.80;;;;;;;37.76;20.60;98509.69;4496718;31;20127;-93
2022/07/23 09:54:33;;;;;;;10.90;4.43;;;;;;;37.97;20.31;98502.34;4481331;31;20086;-92
2022/07/23 09:57:02;;;;;;;13.13;5.40;;;;;;;37.79;20.66;98504.75;4486979;32;20072;-93
2022/07/23 09:59:35;;;;;;;9.43;4.32;;;;;;;37.93;20.35;98498.47;4489020;31;20092;-92
2022/07/23 10:02:01;;;;;;;10.43;4.37;;;;;;;37.81;20.05;98502.56;4482730;32;20141;-92
2022/07/23 10:04:28;;;;;;;10.77;4.43;;;;;;;37.68;19.75;98501.94;4495637;31;20099;-91
2022/07/23 10:06:59;;;;;;;11.70;4.80;;;;;;;37.80;19.79;98496.22;4491007;31;20092;-94
2022/07/23 10:09:36;;;;;;;10.82;4.82;;;;;;;37.60;19.93;98491.47;4499956;31;20118;-94
2022/07/23 10:12:09;;;;;;;;;;;;;;;37.76;19.60;98503.34;4493349;31;20092;-92
2022/07/23 10:14:35;;;;;;;12.23;4.82;;;;;;;37.54;19.89;98496.09;4466222;32;19967;-92
2022/07/23 10:17:04;;;;;;;9.40;4.60;;;;;;;37.79;19.61;98486.34;4485045;31;20106;-94
2022/07/23 10:19:30;;;;;;;11.27;4.80;;;;;;;37.76;19.45;98489.59;4475375;31;20116;-94
2022/07/23 10:22:00;;;;;;;13.43;4.72;;;;;;;37.88;19.86;98489.38;4497264;31;20122;-94
2022/07/23 10:24:30;;;;;;;12.37;5.32;;;;;;;38.08;19.71;98483.97;4472444;32;20084;-94
2022/07/23 10:27:08;;;;;;;11.63;5.15;;;;;;;37.61;20.10;98493.13;4481369;32;20148;-94
2022/07/23 10:29:45;;;;;;;11.35;4.87;;;;;;;37.72;20.25;98483.81;4489141;31;20092;-94
2022/07/23 10:32:35;;;;;;;11.73;5.20;;;;;;;37.95;20.10;98489.97;4479665;31;20167;-94
2022/07/23 10:35:15;;;;;;;12.30;4.85;;;;;;;38.39;19.34;98486.78;4492364;31;20084;-96
2022/07/23 10:37:47;;;;;;;13.43;4.90;;;;;;;38.16;19.47;98480.69;4486712;32;20110;-88
2022/07/23 10:40:22;;;;;;;15.30;5.25;;;;;;;37.85;19.77;98481.69;4479850;31;20160;-94
2022/07/23 10:42:52;;;;;;;10.20;4.72;;;;;;;38.29;19.36;98479.34;4477612;32;20100;-94
2022/07/23 10:45:34;;;;;;;11.15;4.97;;;;;;;38.50;19.51;98465.59;4500147;31;20079;-94
2022/07/23 10:48:16;;;;;;;11.77;5.10;;;;;;;38.19;18.94;98473.00;4492744;31;20167;-94
2022/07/23 10:50:43;;;;;;;10.93;5.20;;;;;;;38.02;19.29;98467.72;4478092;32;20123;-85
2022/07/23 10:53:17;;;;;;;13.27;5.35;;;;;;;37.70;19.61;98465.94;4485807;31;20471;-87
2022/07/23 10:55:44;;;;;;;10.65;5.10;;;;;;;38.38;20.05;98465.88;4490011;31;20118;-90
2022/07/23 10:58:09;;;;;;;;;;;;;;;38.28;19.26;98455.69;4472489;32;20080;-87
2022/07/23 11:00:35;;;;;;;10.45;5.10;;;;;;;38.70;19.54;98462.88;4486160;32;20024;-85
2022/07/23 11:03:21;;;;;;;12.55;5.25;;;;;;;38.39;19.04;98456.53;4486277;31;20725;-84
2022/07/23 11:05:47;;;;;;;11.43;5.53;;;;;;;38.51;18.55;98464.50;4484878;32;20092;-83
2022/07/23 11:08:14;;;;;;;12.50;5.47;;;;;;;38.76;19.28;98449.13;4486199;31;20088;-84
2022/07/23 11:10:45;;;;;;;11.38;5.30;;;;;;;39.06;18.83;98449.13;4495960;31;20113;-84
2022/07/23 11:13:26;;;;;;;12.07;5.62;;;;;;;38.91;18.78;98444.44;4488912;31;20140;-84
2022/07/23 11:16:00;;;;;;;11.52;5.35;;;;;;;38.83;18.87;98450.50;4497054;31;20097;-84
2022/07/23 11:18:44;;;;;;;11.10;5.62;;;;;;;38.59;19.67;98438.41;4494546;31;20447;-84
2022/07/23 11:21:31;;;;;;;12.40;5.53;;;;;;;39.05;18.09;98425.41;4488620;31;20443;-84
2022/07/23 11:23:56;;;;;;;12.73;5.32;;;;;;;39.19;19.11;98433.91;4496389;31;20125;-84
2022/07/23 11:26:43;;;;;;;12.67;5.70;;;;;;;38.88;18.38;98424.88;4493974;31;20083;-85